sensor_id;sensor_type;location;lat;lon;timestamp;P1;durP1;ratioP1;P2;durP2;ratioP2
38021;SDS011;23832;43.216;27.946;2023-03-01T00:01:53;164.18;;;154.55;;
38021;SDS011;23832;43.216;27.946;2023-03-01T00:03:56;160.48;;;151.02;;
38021;SDS011;23832;43.216;27.946;2023-03-01T00:05:59;159.50;;;150.07;;
38021;SDS011;23832;43.216;27.946;2023-03-01T00:08:01;162.32;;;152.73;;
38021;SDS011;23832;43.216;27.946;2023-03-01T00:10:03;164.18;;;154.48;;
38021;SDS011;23832;43.216;27.946;2023-03-01T00:12:06;165.40;;;155.60;;
38021;SDS011;23832;43.216;27.946;2023-03-01T00:14:08;161.43;;;151.85;;
38021;SDS011;23832;43.216;27.946;2023-03-01T00:16:12;165.52;;;155.73;;
38021;SDS011;23832;43.216;27.946;2023-03-01T00:18:16;171.00;;;160.98;;
38021;SDS011;23832;43.216;27.946;2023-03-01T00:20:19;162.60;;;152.95;;
38021;SDS011;23832;43.216;27.946;2023-03-01T00:22:21;168.35;;;158.45;;
38021;SDS011;23832;43.216;27.946;2023-03-01T00:24:23;164.63;;;154.95;;
38021;SDS011;23832;43.216;27.946;2023-03-01T00:26:25;162.65;;;153.10;;
38021;SDS011;23832;43.216;27.946;2023-03-01T00:28:28;166.00;;;156.20;;
38021;SDS011;23832;43.216;27.946;2023-03-01T00:30:29;157.98;;;148.65;;
38021;SDS011;23832;43.216;27.946;2023-03-01T00:32:33;166.57;;;156.85;;
38021;SDS011;23832;43.216;27.946;2023-03-01T00:34:35;162.88;;;153.27;;
38021;SDS011;23832;43.216;27.946;2023-03-01T00:36:36;161.68;;;152.15;;
38021;SDS011;23832;43.216;27.946;2023-03-01T00:38:39;162.80;;;153.25;;
38021;SDS011;23832;43.216;27.946;2023-03-01T00:40:42;162.57;;;152.95;;
38021;SDS011;23832;43.216;27.946;2023-03-01T00:42:44;165.50;;;155.82;;
38021;SDS011;23832;43.216;27.946;2023-03-01T00:44:47;160.35;;;150.88;;
38021;SDS011;23832;43.216;27.946;2023-03-01T00:46:48;162.65;;;153.13;;
38021;SDS011;23832;43.216;27.946;2023-03-01T00:48:52;164.57;;;154.90;;
38021;SDS011;23832;43.216;27.946;2023-03-01T00:50:55;161.20;;;151.60;;
38021;SDS011;23832;43.216;27.946;2023-03-01T00:52:57;159.63;;;150.15;;
38021;SDS011;23832;43.216;27.946;2023-03-01T00:54:59;159.10;;;149.75;;
38021;SDS011;23832;43.216;27.946;2023-03-01T00:57:01;163.40;;;153.85;;
38021;SDS011;23832;43.216;27.946;2023-03-01T00:59:03;162.07;;;152.57;;
38021;SDS011;23832;43.216;27.946;2023-03-01T01:01:08;162.32;;;152.77;;
38021;SDS011;23832;43.216;27.946;2023-03-01T01:03:17;161.82;;;152.38;;
38021;SDS011;23832;43.216;27.946;2023-03-01T01:05:20;162.45;;;152.88;;
38021;SDS011;23832;43.216;27.946;2023-03-01T01:07:22;166.80;;;157.00;;
38021;SDS011;23832;43.216;27.946;2023-03-01T01:09:25;164.18;;;154.55;;
38021;SDS011;23832;43.216;27.946;2023-03-01T01:11:27;163.68;;;153.90;;
38021;SDS011;23832;43.216;27.946;2023-03-01T01:13:30;158.00;;;148.70;;
38021;SDS011;23832;43.216;27.946;2023-03-01T01:15:33;160.52;;;151.10;;
38021;SDS011;23832;43.216;27.946;2023-03-01T01:17:35;159.02;;;149.63;;
38021;SDS011;23832;43.216;27.946;2023-03-01T01:19:37;162.75;;;153.15;;
38021;SDS011;23832;43.216;27.946;2023-03-01T01:21:40;160.45;;;150.95;;
38021;SDS011;23832;43.216;27.946;2023-03-01T01:23:44;163.13;;;153.50;;
38021;SDS011;23832;43.216;27.946;2023-03-01T01:25:46;166.38;;;156.48;;
38021;SDS011;23832;43.216;27.946;2023-03-01T01:27:49;166.50;;;156.55;;
38021;SDS011;23832;43.216;27.946;2023-03-01T01:29:52;165.15;;;155.25;;
38021;SDS011;23832;43.216;27.946;2023-03-01T01:31:54;162.40;;;152.70;;
38021;SDS011;23832;43.216;27.946;2023-03-01T01:33:59;164.70;;;154.90;;
38021;SDS011;23832;43.216;27.946;2023-03-01T01:36:02;161.15;;;151.57;;
38021;SDS011;23832;43.216;27.946;2023-03-01T01:38:06;162.00;;;152.45;;
38021;SDS011;23832;43.216;27.946;2023-03-01T01:40:08;162.73;;;153.18;;
38021;SDS011;23832;43.216;27.946;2023-03-01T01:42:12;165.93;;;156.15;;
38021;SDS011;23832;43.216;27.946;2023-03-01T01:44:17;163.57;;;153.93;;
38021;SDS011;23832;43.216;27.946;2023-03-01T01:46:21;167.38;;;157.48;;
38021;SDS011;23832;43.216;27.946;2023-03-01T01:48:32;165.88;;;156.07;;
38021;SDS011;23832;43.216;27.946;2023-03-01T01:50:41;161.90;;;152.27;;
38021;SDS011;23832;43.216;27.946;2023-03-01T01:52:45;165.70;;;155.90;;
38021;SDS011;23832;43.216;27.946;2023-03-01T01:54:51;164.43;;;154.73;;
38021;SDS011;23832;43.216;27.946;2023-03-01T01:57:03;165.82;;;155.80;;
38021;SDS011;23832;43.216;27.946;2023-03-01T01:59:08;166.40;;;156.57;;
38021;SDS011;23832;43.216;27.946;2023-03-01T02:01:11;162.38;;;152.68;;
38021;SDS011;23832;43.216;27.946;2023-03-01T02:03:14;160.43;;;150.82;;
38021;SDS011;23832;43.216;27.946;2023-03-01T02:05:20;167.70;;;157.80;;
38021;SDS011;23832;43.216;27.946;2023-03-01T02:07:27;167.57;;;157.63;;
38021;SDS011;23832;43.216;27.946;2023-03-01T02:09:29;162.32;;;152.55;;
38021;SDS011;23832;43.216;27.946;2023-03-01T02:11:34;168.27;;;158.13;;
38021;SDS011;23832;43.216;27.946;2023-03-01T02:13:38;164.70;;;154.80;;
38021;SDS011;23832;43.216;27.946;2023-03-01T02:15:40;164.60;;;154.80;;
38021;SDS011;23832;43.216;27.946;2023-03-01T02:17:44;161.65;;;152.02;;
38021;SDS011;23832;43.216;27.946;2023-03-01T02:19:49;165.15;;;155.35;;
38021;SDS011;23832;43.216;27.946;2023-03-01T02:22:01;165.77;;;155.88;;
38021;SDS011;23832;43.216;27.946;2023-03-01T02:24:15;166.52;;;156.65;;
38021;SDS011;23832;43.216;27.946;2023-03-01T02:26:29;165.10;;;155.23;;
38021;SDS011;23832;43.216;27.946;2023-03-01T02:28:38;162.05;;;152.48;;
38021;SDS011;23832;43.216;27.946;2023-03-01T02:30:44;170.52;;;160.32;;
38021;SDS011;23832;43.216;27.946;2023-03-01T02:33:03;163.20;;;153.43;;
38021;SDS011;23832;43.216;27.946;2023-03-01T02:35:05;169.65;;;159.52;;
38021;SDS011;23832;43.216;27.946;2023-03-01T02:37:08;168.80;;;158.73;;
38021;SDS011;23832;43.216;27.946;2023-03-01T02:39:15;168.02;;;157.93;;
38021;SDS011;23832;43.216;27.946;2023-03-01T02:41:19;173.05;;;162.75;;
38021;SDS011;23832;43.216;27.946;2023-03-01T02:43:27;166.02;;;156.07;;
38021;SDS011;23832;43.216;27.946;2023-03-01T02:45:34;168.23;;;158.18;;
38021;SDS011;23832;43.216;27.946;2023-03-01T02:47:36;160.18;;;150.48;;
38021;SDS011;23832;43.216;27.946;2023-03-01T02:49:38;169.38;;;159.23;;
38021;SDS011;23832;43.216;27.946;2023-03-01T02:51:42;169.50;;;159.40;;
38021;SDS011;23832;43.216;27.946;2023-03-01T02:53:56;165.75;;;155.65;;
38021;SDS011;23832;43.216;27.946;2023-03-01T02:56:09;164.70;;;154.70;;
38021;SDS011;23832;43.216;27.946;2023-03-01T02:58:13;169.00;;;158.60;;
38021;SDS011;23832;43.216;27.946;2023-03-01T03:00:17;172.77;;;161.90;;
38021;SDS011;23832;43.216;27.946;2023-03-01T03:02:24;172.18;;;161.68;;
38021;SDS011;23832;43.216;27.946;2023-03-01T03:04:37;168.00;;;157.90;;
38021;SDS011;23832;43.216;27.946;2023-03-01T03:06:39;167.90;;;157.63;;
38021;SDS011;23832;43.216;27.946;2023-03-01T03:08:41;170.98;;;160.57;;
38021;SDS011;23832;43.216;27.946;2023-03-01T03:10:44;170.25;;;159.95;;
38021;SDS011;23832;43.216;27.946;2023-03-01T03:12:48;171.65;;;161.25;;
38021;SDS011;23832;43.216;27.946;2023-03-01T03:14:51;171.60;;;161.10;;
38021;SDS011;23832;43.216;27.946;2023-03-01T03:16:53;173.32;;;162.95;;
38021;SDS011;23832;43.216;27.946;2023-03-01T03:18:57;181.25;;;169.73;;
38021;SDS011;23832;43.216;27.946;2023-03-01T03:21:07;177.43;;;166.27;;
38021;SDS011;23832;43.216;27.946;2023-03-01T03:23:10;170.77;;;160.32;;
38021;SDS011;23832;43.216;27.946;2023-03-01T03:25:13;171.30;;;160.90;;
38021;SDS011;23832;43.216;27.946;2023-03-01T03:27:15;174.38;;;163.93;;
38021;SDS011;23832;43.216;27.946;2023-03-01T03:29:17;175.00;;;164.35;;
38021;SDS011;23832;43.216;27.946;2023-03-01T03:31:19;170.32;;;159.95;;
38021;SDS011;23832;43.216;27.946;2023-03-01T03:33:22;169.88;;;159.55;;
38021;SDS011;23832;43.216;27.946;2023-03-01T03:35:26;171.98;;;161.48;;
38021;SDS011;23832;43.216;27.946;2023-03-01T03:37:30;174.50;;;163.80;;
38021;SDS011;23832;43.216;27.946;2023-03-01T03:39:49;173.65;;;163.05;;
38021;SDS011;23832;43.216;27.946;2023-03-01T03:41:54;170.77;;;160.32;;
38021;SDS011;23832;43.216;27.946;2023-03-01T03:43:56;174.10;;;163.23;;
38021;SDS011;23832;43.216;27.946;2023-03-01T03:45:58;173.25;;;162.63;;
38021;SDS011;23832;43.216;27.946;2023-03-01T03:48:01;175.20;;;164.30;;
38021;SDS011;23832;43.216;27.946;2023-03-01T03:50:04;172.70;;;162.18;;
38021;SDS011;23832;43.216;27.946;2023-03-01T03:52:08;172.68;;;161.88;;
38021;SDS011;23832;43.216;27.946;2023-03-01T03:54:13;175.75;;;164.90;;
38021;SDS011;23832;43.216;27.946;2023-03-01T03:56:15;175.75;;;164.80;;
38021;SDS011;23832;43.216;27.946;2023-03-01T03:58:17;180.32;;;168.88;;
38021;SDS011;23832;43.216;27.946;2023-03-01T04:00:21;179.95;;;168.73;;
38021;SDS011;23832;43.216;27.946;2023-03-01T04:02:24;176.40;;;165.40;;
38021;SDS011;23832;43.216;27.946;2023-03-01T04:04:26;171.82;;;161.18;;
38021;SDS011;23832;43.216;27.946;2023-03-01T04:06:28;178.65;;;167.43;;
38021;SDS011;23832;43.216;27.946;2023-03-01T04:08:32;180.10;;;168.68;;
38021;SDS011;23832;43.216;27.946;2023-03-01T04:10:35;183.15;;;171.65;;
38021;SDS011;23832;43.216;27.946;2023-03-01T04:12:38;179.68;;;167.77;;
38021;SDS011;23832;43.216;27.946;2023-03-01T04:14:43;178.18;;;166.88;;
38021;SDS011;23832;43.216;27.946;2023-03-01T04:16:45;178.43;;;167.35;;
38021;SDS011;23832;43.216;27.946;2023-03-01T04:18:47;177.48;;;166.63;;
38021;SDS011;23832;43.216;27.946;2023-03-01T04:20:49;178.38;;;167.18;;
38021;SDS011;23832;43.216;27.946;2023-03-01T04:22:58;179.18;;;167.98;;
38021;SDS011;23832;43.216;27.946;2023-03-01T04:25:12;177.63;;;166.65;;
38021;SDS011;23832;43.216;27.946;2023-03-01T04:27:14;175.25;;;164.32;;
38021;SDS011;23832;43.216;27.946;2023-03-01T04:29:17;177.57;;;166.38;;
38021;SDS011;23832;43.216;27.946;2023-03-01T04:31:20;174.20;;;163.35;;
38021;SDS011;23832;43.216;27.946;2023-03-01T04:33:23;175.25;;;164.00;;
38021;SDS011;23832;43.216;27.946;2023-03-01T04:35:26;177.07;;;165.90;;
38021;SDS011;23832;43.216;27.946;2023-03-01T04:37:28;175.55;;;164.65;;
38021;SDS011;23832;43.216;27.946;2023-03-01T04:39:30;177.82;;;166.52;;
38021;SDS011;23832;43.216;27.946;2023-03-01T04:41:34;179.25;;;167.65;;
38021;SDS011;23832;43.216;27.946;2023-03-01T04:43:36;181.63;;;170.13;;
38021;SDS011;23832;43.216;27.946;2023-03-01T04:45:39;178.68;;;167.60;;
38021;SDS011;23832;43.216;27.946;2023-03-01T04:47:41;170.43;;;160.00;;
38021;SDS011;23832;43.216;27.946;2023-03-01T04:49:44;179.02;;;167.90;;
38021;SDS011;23832;43.216;27.946;2023-03-01T04:51:46;179.90;;;168.90;;
38021;SDS011;23832;43.216;27.946;2023-03-01T04:53:48;179.57;;;168.48;;
38021;SDS011;23832;43.216;27.946;2023-03-01T04:55:50;174.88;;;163.98;;
38021;SDS011;23832;43.216;27.946;2023-03-01T04:57:54;179.95;;;168.73;;
38021;SDS011;23832;43.216;27.946;2023-03-01T04:59:56;179.80;;;168.52;;
38021;SDS011;23832;43.216;27.946;2023-03-01T05:01:58;173.07;;;162.40;;
38021;SDS011;23832;43.216;27.946;2023-03-01T05:04:00;182.70;;;170.40;;
38021;SDS011;23832;43.216;27.946;2023-03-01T05:06:05;182.43;;;170.15;;
38021;SDS011;23832;43.216;27.946;2023-03-01T05:08:07;175.48;;;163.43;;
38021;SDS011;23832;43.216;27.946;2023-03-01T05:10:17;179.27;;;167.38;;
38021;SDS011;23832;43.216;27.946;2023-03-01T05:12:19;178.48;;;167.18;;
38021;SDS011;23832;43.216;27.946;2023-03-01T05:14:23;175.80;;;164.48;;
38021;SDS011;23832;43.216;27.946;2023-03-01T05:16:25;175.38;;;164.27;;
38021;SDS011;23832;43.216;27.946;2023-03-01T05:18:27;180.23;;;168.82;;
38021;SDS011;23832;43.216;27.946;2023-03-01T05:20:33;182.65;;;170.82;;
38021;SDS011;23832;43.216;27.946;2023-03-01T05:22:36;185.48;;;173.57;;
38021;SDS011;23832;43.216;27.946;2023-03-01T05:24:38;181.70;;;170.32;;
38021;SDS011;23832;43.216;27.946;2023-03-01T05:26:41;181.07;;;169.88;;
38021;SDS011;23832;43.216;27.946;2023-03-01T05:28:42;177.70;;;166.85;;
38021;SDS011;23832;43.216;27.946;2023-03-01T05:30:46;178.13;;;166.98;;
38021;SDS011;23832;43.216;27.946;2023-03-01T05:32:51;178.60;;;167.35;;
38021;SDS011;23832;43.216;27.946;2023-03-01T05:34:55;176.82;;;165.93;;
38021;SDS011;23832;43.216;27.946;2023-03-01T05:36:57;172.93;;;162.38;;
38021;SDS011;23832;43.216;27.946;2023-03-01T05:39:00;173.40;;;162.70;;
38021;SDS011;23832;43.216;27.946;2023-03-01T05:41:02;172.10;;;161.60;;
38021;SDS011;23832;43.216;27.946;2023-03-01T05:43:04;168.38;;;158.02;;
38021;SDS011;23832;43.216;27.946;2023-03-01T05:45:06;168.35;;;157.95;;
38021;SDS011;23832;43.216;27.946;2023-03-01T05:47:11;170.60;;;160.13;;
38021;SDS011;23832;43.216;27.946;2023-03-01T05:49:13;168.02;;;157.73;;
38021;SDS011;23832;43.216;27.946;2023-03-01T05:51:15;169.00;;;158.48;;
38021;SDS011;23832;43.216;27.946;2023-03-01T05:53:18;165.80;;;155.50;;
38021;SDS011;23832;43.216;27.946;2023-03-01T05:55:22;167.25;;;156.93;;
38021;SDS011;23832;43.216;27.946;2023-03-01T05:57:24;164.98;;;154.80;;
38021;SDS011;23832;43.216;27.946;2023-03-01T05:59:26;169.82;;;159.43;;
38021;SDS011;23832;43.216;27.946;2023-03-01T06:01:28;167.80;;;157.50;;
38021;SDS011;23832;43.216;27.946;2023-03-01T06:03:32;167.35;;;157.05;;
38021;SDS011;23832;43.216;27.946;2023-03-01T06:05:33;166.75;;;156.65;;
38021;SDS011;23832;43.216;27.946;2023-03-01T06:07:36;164.75;;;154.55;;
38021;SDS011;23832;43.216;27.946;2023-03-01T06:09:38;162.98;;;153.10;;
38021;SDS011;23832;43.216;27.946;2023-03-01T06:11:40;165.13;;;154.98;;
38021;SDS011;23832;43.216;27.946;2023-03-01T06:13:42;166.73;;;156.55;;
38021;SDS011;23832;43.216;27.946;2023-03-01T06:15:44;166.73;;;156.23;;
38021;SDS011;23832;43.216;27.946;2023-03-01T06:17:47;173.15;;;162.60;;
38021;SDS011;23832;43.216;27.946;2023-03-01T06:19:50;169.85;;;159.50;;
38021;SDS011;23832;43.216;27.946;2023-03-01T06:21:52;166.23;;;156.07;;
38021;SDS011;23832;43.216;27.946;2023-03-01T06:23:54;170.05;;;159.75;;
38021;SDS011;23832;43.216;27.946;2023-03-01T06:25:56;169.63;;;159.27;;
38021;SDS011;23832;43.216;27.946;2023-03-01T06:27:58;172.23;;;161.60;;
38021;SDS011;23832;43.216;27.946;2023-03-01T06:30:00;167.57;;;157.48;;
38021;SDS011;23832;43.216;27.946;2023-03-01T06:32:02;167.68;;;157.55;;
38021;SDS011;23832;43.216;27.946;2023-03-01T06:34:04;166.77;;;156.32;;
38021;SDS011;23832;43.216;27.946;2023-03-01T06:36:08;163.77;;;153.63;;
38021;SDS011;23832;43.216;27.946;2023-03-01T06:38:10;171.68;;;161.15;;
38021;SDS011;23832;43.216;27.946;2023-03-01T06:40:15;168.80;;;158.43;;
38021;SDS011;23832;43.216;27.946;2023-03-01T06:42:17;160.85;;;150.98;;
38021;SDS011;23832;43.216;27.946;2023-03-01T06:44:19;166.18;;;155.95;;
38021;SDS011;23832;43.216;27.946;2023-03-01T06:46:21;167.98;;;157.75;;
38021;SDS011;23832;43.216;27.946;2023-03-01T06:48:22;166.43;;;156.13;;
38021;SDS011;23832;43.216;27.946;2023-03-01T06:50:25;168.63;;;158.32;;
38021;SDS011;23832;43.216;27.946;2023-03-01T06:52:28;166.45;;;156.25;;
38021;SDS011;23832;43.216;27.946;2023-03-01T06:54:30;163.80;;;153.65;;
38021;SDS011;23832;43.216;27.946;2023-03-01T06:56:33;167.75;;;157.50;;
38021;SDS011;23832;43.216;27.946;2023-03-01T06:58:35;165.38;;;155.30;;
38021;SDS011;23832;43.216;27.946;2023-03-01T07:00:39;165.93;;;155.65;;
38021;SDS011;23832;43.216;27.946;2023-03-01T07:02:43;169.05;;;158.68;;
38021;SDS011;23832;43.216;27.946;2023-03-01T07:04:44;167.50;;;157.23;;
38021;SDS011;23832;43.216;27.946;2023-03-01T07:06:47;167.73;;;157.48;;
38021;SDS011;23832;43.216;27.946;2023-03-01T07:08:56;171.73;;;161.23;;
38021;SDS011;23832;43.216;27.946;2023-03-01T07:10:59;167.52;;;157.20;;
38021;SDS011;23832;43.216;27.946;2023-03-01T07:13:02;173.63;;;163.02;;
38021;SDS011;23832;43.216;27.946;2023-03-01T07:15:04;165.38;;;155.20;;
38021;SDS011;23832;43.216;27.946;2023-03-01T07:17:09;172.68;;;161.77;;
38021;SDS011;23832;43.216;27.946;2023-03-01T07:19:11;168.68;;;158.38;;
38021;SDS011;23832;43.216;27.946;2023-03-01T07:21:13;171.32;;;160.68;;
38021;SDS011;23832;43.216;27.946;2023-03-01T07:23:16;171.60;;;161.05;;
38021;SDS011;23832;43.216;27.946;2023-03-01T07:25:20;171.20;;;160.70;;
38021;SDS011;23832;43.216;27.946;2023-03-01T07:27:22;173.60;;;163.07;;
38021;SDS011;23832;43.216;27.946;2023-03-01T07:29:24;172.77;;;162.13;;
38021;SDS011;23832;43.216;27.946;2023-03-01T07:31:28;172.63;;;162.02;;
38021;SDS011;23832;43.216;27.946;2023-03-01T07:33:30;173.30;;;162.82;;
38021;SDS011;23832;43.216;27.946;2023-03-01T07:35:33;175.98;;;165.32;;
38021;SDS011;23832;43.216;27.946;2023-03-01T07:37:35;173.20;;;162.60;;
38021;SDS011;23832;43.216;27.946;2023-03-01T07:39:36;175.00;;;164.32;;
38021;SDS011;23832;43.216;27.946;2023-03-01T07:41:40;174.57;;;163.77;;
38021;SDS011;23832;43.216;27.946;2023-03-01T07:43:42;172.73;;;162.23;;
38021;SDS011;23832;43.216;27.946;2023-03-01T07:45:44;170.95;;;160.55;;
38021;SDS011;23832;43.216;27.946;2023-03-01T07:47:46;169.77;;;159.15;;
38021;SDS011;23832;43.216;27.946;2023-03-01T07:49:48;168.55;;;158.20;;
38021;SDS011;23832;43.216;27.946;2023-03-01T07:51:50;173.63;;;162.93;;
38021;SDS011;23832;43.216;27.946;2023-03-01T07:53:52;166.48;;;156.07;;
38021;SDS011;23832;43.216;27.946;2023-03-01T07:56:00;166.43;;;156.23;;
38021;SDS011;23832;43.216;27.946;2023-03-01T07:58:04;170.70;;;160.18;;
38021;SDS011;23832;43.216;27.946;2023-03-01T08:00:06;172.52;;;161.90;;
38021;SDS011;23832;43.216;27.946;2023-03-01T08:02:11;167.18;;;156.73;;
38021;SDS011;23832;43.216;27.946;2023-03-01T08:04:15;164.88;;;154.40;;
38021;SDS011;23832;43.216;27.946;2023-03-01T08:06:17;167.93;;;157.40;;
38021;SDS011;23832;43.216;27.946;2023-03-01T08:08:19;163.60;;;153.43;;
38021;SDS011;23832;43.216;27.946;2023-03-01T08:10:21;163.68;;;153.68;;
38021;SDS011;23832;43.216;27.946;2023-03-01T08:12:23;167.45;;;157.18;;
38021;SDS011;23832;43.216;27.946;2023-03-01T08:14:29;164.05;;;153.85;;
38021;SDS011;23832;43.216;27.946;2023-03-01T08:16:31;161.77;;;151.77;;
38021;SDS011;23832;43.216;27.946;2023-03-01T08:18:33;164.30;;;154.23;;
38021;SDS011;23832;43.216;27.946;2023-03-01T08:20:35;164.88;;;154.57;;
38021;SDS011;23832;43.216;27.946;2023-03-01T08:22:37;167.02;;;156.45;;
38021;SDS011;23832;43.216;27.946;2023-03-01T08:24:39;163.48;;;153.43;;
38021;SDS011;23832;43.216;27.946;2023-03-01T08:26:41;164.82;;;154.80;;
38021;SDS011;23832;43.216;27.946;2023-03-01T08:28:43;166.98;;;156.65;;
38021;SDS011;23832;43.216;27.946;2023-03-01T08:30:47;166.15;;;155.50;;
38021;SDS011;23832;43.216;27.946;2023-03-01T08:32:49;165.40;;;155.18;;
38021;SDS011;23832;43.216;27.946;2023-03-01T08:34:52;164.38;;;153.77;;
38021;SDS011;23832;43.216;27.946;2023-03-01T08:36:54;165.63;;;155.48;;
38021;SDS011;23832;43.216;27.946;2023-03-01T08:38:56;163.25;;;153.00;;
38021;SDS011;23832;43.216;27.946;2023-03-01T08:40:59;161.73;;;151.75;;
38021;SDS011;23832;43.216;27.946;2023-03-01T08:43:02;168.02;;;157.52;;
38021;SDS011;23832;43.216;27.946;2023-03-01T08:45:05;165.63;;;155.48;;
38021;SDS011;23832;43.216;27.946;2023-03-01T08:47:09;164.65;;;154.68;;
38021;SDS011;23832;43.216;27.946;2023-03-01T08:49:12;164.52;;;154.35;;
38021;SDS011;23832;43.216;27.946;2023-03-01T08:51:17;165.57;;;155.45;;
38021;SDS011;23832;43.216;27.946;2023-03-01T08:53:19;167.50;;;156.95;;
38021;SDS011;23832;43.216;27.946;2023-03-01T08:55:21;160.88;;;150.80;;
38021;SDS011;23832;43.216;27.946;2023-03-01T08:57:23;163.48;;;153.40;;
38021;SDS011;23832;43.216;27.946;2023-03-01T08:59:25;164.68;;;154.48;;
38021;SDS011;23832;43.216;27.946;2023-03-01T09:01:29;164.63;;;154.50;;
38021;SDS011;23832;43.216;27.946;2023-03-01T09:03:33;164.45;;;154.38;;
38021;SDS011;23832;43.216;27.946;2023-03-01T09:05:35;164.73;;;154.60;;
38021;SDS011;23832;43.216;27.946;2023-03-01T09:07:37;164.80;;;154.38;;
38021;SDS011;23832;43.216;27.946;2023-03-01T09:09:39;168.52;;;158.18;;
38021;SDS011;23832;43.216;27.946;2023-03-01T09:11:41;163.82;;;153.65;;
38021;SDS011;23832;43.216;27.946;2023-03-01T09:13:46;161.95;;;152.15;;
38021;SDS011;23832;43.216;27.946;2023-03-01T09:15:50;162.20;;;152.45;;
38021;SDS011;23832;43.216;27.946;2023-03-01T09:17:52;169.05;;;158.55;;
38021;SDS011;23832;43.216;27.946;2023-03-01T09:19:56;164.38;;;153.98;;
38021;SDS011;23832;43.216;27.946;2023-03-01T09:21:59;164.15;;;153.73;;
38021;SDS011;23832;43.216;27.946;2023-03-01T09:24:01;162.48;;;152.48;;
38021;SDS011;23832;43.216;27.946;2023-03-01T09:26:03;165.02;;;154.85;;
38021;SDS011;23832;43.216;27.946;2023-03-01T09:28:05;169.18;;;158.43;;
38021;SDS011;23832;43.216;27.946;2023-03-01T09:30:08;167.75;;;157.52;;
38021;SDS011;23832;43.216;27.946;2023-03-01T09:32:11;172.35;;;161.68;;
38021;SDS011;23832;43.216;27.946;2023-03-01T09:34:13;167.88;;;157.60;;
38021;SDS011;23832;43.216;27.946;2023-03-01T09:36:18;165.18;;;154.95;;
38021;SDS011;23832;43.216;27.946;2023-03-01T09:38:21;172.02;;;161.30;;
38021;SDS011;23832;43.216;27.946;2023-03-01T09:40:24;164.32;;;154.02;;
38021;SDS011;23832;43.216;27.946;2023-03-01T09:42:29;166.60;;;156.20;;
38021;SDS011;23832;43.216;27.946;2023-03-01T09:44:36;171.88;;;161.18;;
38021;SDS011;23832;43.216;27.946;2023-03-01T09:46:45;169.43;;;159.00;;
38021;SDS011;23832;43.216;27.946;2023-03-01T09:48:48;172.73;;;162.02;;
38021;SDS011;23832;43.216;27.946;2023-03-01T09:50:55;168.88;;;158.23;;
38021;SDS011;23832;43.216;27.946;2023-03-01T09:53:01;165.50;;;155.23;;
38021;SDS011;23832;43.216;27.946;2023-03-01T09:55:11;167.63;;;156.88;;
38021;SDS011;23832;43.216;27.946;2023-03-01T09:57:17;167.70;;;157.02;;
38021;SDS011;23832;43.216;27.946;2023-03-01T09:59:24;167.17;;;156.77;;
38021;SDS011;23832;43.216;27.946;2023-03-01T10:01:34;166.80;;;156.52;;
38021;SDS011;23832;43.216;27.946;2023-03-01T10:03:41;162.77;;;152.77;;
38021;SDS011;23832;43.216;27.946;2023-03-01T10:05:49;163.40;;;153.13;;
38021;SDS011;23832;43.216;27.946;2023-03-01T10:08:00;169.77;;;159.15;;
38021;SDS011;23832;43.216;27.946;2023-03-01T10:10:28;169.07;;;158.70;;
38021;SDS011;23832;43.216;27.946;2023-03-01T10:12:35;165.60;;;155.30;;
38021;SDS011;23832;43.216;27.946;2023-03-01T10:14:43;168.30;;;157.68;;
38021;SDS011;23832;43.216;27.946;2023-03-01T10:16:54;165.88;;;155.70;;
38021;SDS011;23832;43.216;27.946;2023-03-01T10:19:02;166.02;;;155.70;;
38021;SDS011;23832;43.216;27.946;2023-03-01T10:21:11;163.73;;;153.73;;
38021;SDS011;23832;43.216;27.946;2023-03-01T10:25:21;160.65;;;150.70;;
38021;SDS011;23832;43.216;27.946;2023-03-01T10:27:36;164.38;;;153.82;;
38021;SDS011;23832;43.216;27.946;2023-03-01T10:29:48;164.05;;;153.93;;
38021;SDS011;23832;43.216;27.946;2023-03-01T10:31:57;165.23;;;155.10;;
38021;SDS011;23832;43.216;27.946;2023-03-01T10:33:59;165.88;;;155.63;;
38021;SDS011;23832;43.216;27.946;2023-03-01T10:36:02;161.10;;;151.23;;
38021;SDS011;23832;43.216;27.946;2023-03-01T10:38:06;160.75;;;151.00;;
38021;SDS011;23832;43.216;27.946;2023-03-01T10:40:10;169.05;;;158.73;;
38021;SDS011;23832;43.216;27.946;2023-03-01T10:42:18;159.90;;;150.23;;
38021;SDS011;23832;43.216;27.946;2023-03-01T10:46:58;159.15;;;149.15;;
38021;SDS011;23832;43.216;27.946;2023-03-01T10:49:12;160.30;;;150.60;;
38021;SDS011;23832;43.216;27.946;2023-03-01T10:51:17;160.60;;;150.57;;
38021;SDS011;23832;43.216;27.946;2023-03-01T10:53:24;165.80;;;155.85;;
38021;SDS011;23832;43.216;27.946;2023-03-01T10:55:31;162.57;;;152.77;;
38021;SDS011;23832;43.216;27.946;2023-03-01T10:57:37;163.90;;;153.90;;
38021;SDS011;23832;43.216;27.946;2023-03-01T10:59:40;161.52;;;151.73;;
38021;SDS011;23832;43.216;27.946;2023-03-01T11:01:43;164.18;;;154.20;;
38021;SDS011;23832;43.216;27.946;2023-03-01T11:03:46;167.07;;;156.98;;
38021;SDS011;23832;43.216;27.946;2023-03-01T11:06:20;160.30;;;150.60;;
38021;SDS011;23832;43.216;27.946;2023-03-01T11:08:30;163.25;;;153.32;;
38021;SDS011;23832;43.216;27.946;2023-03-01T11:10:37;163.70;;;153.70;;
38021;SDS011;23832;43.216;27.946;2023-03-01T11:12:39;166.45;;;156.25;;
38021;SDS011;23832;43.216;27.946;2023-03-01T11:14:45;166.00;;;155.60;;
38021;SDS011;23832;43.216;27.946;2023-03-01T11:16:58;165.23;;;155.07;;
38021;SDS011;23832;43.216;27.946;2023-03-01T11:19:14;163.43;;;153.48;;
38021;SDS011;23832;43.216;27.946;2023-03-01T11:21:21;162.32;;;152.43;;
38021;SDS011;23832;43.216;27.946;2023-03-01T11:23:23;159.23;;;149.40;;
38021;SDS011;23832;43.216;27.946;2023-03-01T11:25:27;161.80;;;152.13;;
38021;SDS011;23832;43.216;27.946;2023-03-01T11:27:35;162.05;;;152.27;;
38021;SDS011;23832;43.216;27.946;2023-03-01T11:29:42;166.23;;;155.95;;
38021;SDS011;23832;43.216;27.946;2023-03-01T11:31:47;164.98;;;155.07;;
38021;SDS011;23832;43.216;27.946;2023-03-01T11:33:52;164.18;;;154.25;;
38021;SDS011;23832;43.216;27.946;2023-03-01T11:36:00;165.10;;;155.00;;
38021;SDS011;23832;43.216;27.946;2023-03-01T11:38:12;162.90;;;152.80;;
38021;SDS011;23832;43.216;27.946;2023-03-01T11:40:21;164.13;;;154.23;;